Time;durP1;ratioP1;P1;durP2;ratioP2;P2;SDS_P1;SDS_P2;PMS_P1;PMS_P2;Temp;Humidity;BMP_temperature;BMP_pressure;BME280_temperature;BME280_humidity;BME280_pressure;Samples;Min_cycle;Max_cycle;Signal;HPM_P1;HPM_P2
2022/12/03 00:00:54;;;;;;;24.23;16.80;;;3.40;99.90;;;;;;5137303;27;20203;-59
2022/12/03 00:03:20;;;;;;;25.97;16.90;;;3.30;99.90;;;;;;5136809;27;20645;-61
2022/12/03 00:05:46;;;;;;;24.37;16.60;;;3.20;99.90;;;;;;5136832;27;20219;-59
2022/12/03 00:08:11;;;;;;;24.47;16.40;;;3.20;99.90;;;;;;5137121;27;20186;-60
2022/12/03 00:10:37;;;;;;;24.53;16.20;;;3.30;99.90;;;;;;5136558;27;20689;-61
2022/12/03 00:13:03;;;;;;;25.93;16.40;;;3.30;99.90;;;;;;5101370;27;20394;-59
2022/12/03 00:15:28;;;;;;;26.80;17.77;;;3.10;99.90;;;;;;5136876;27;20208;-59
2022/12/03 00:17:54;;;;;;;27.43;16.83;;;3.10;99.90;;;;;;5136927;27;20183;-59
2022/12/03 00:20:22;;;;;;;25.10;16.83;;;3.10;99.90;;;;;;5136715;27;20541;-59
2022/12/03 00:22:48;;;;;;;23.80;15.90;;;3.20;99.90;;;;;;5136513;27;20201;-59
2022/12/03 00:25:15;;;;;;;25.57;17.10;;;3.20;99.90;;;;;;5136326;27;20184;-59
2022/12/03 00:27:40;;;;;;;27.77;17.73;;;3.10;99.90;;;;;;5136621;27;20171;-59
2022/12/03 00:30:07;;;;;;;24.10;16.40;;;3.10;99.90;;;;;;5136377;27;20634;-60
2022/12/03 00:32:33;;;;;;;24.27;17.47;;;3.00;99.90;;;;;;5117984;27;20187;-59
2022/12/03 00:34:58;;;;;;;22.33;16.03;;;3.10;99.90;;;;;;5136259;27;20262;-60
2022/12/03 00:37:24;;;;;;;24.53;16.40;;;3.00;99.90;;;;;;5136206;27;20541;-59
2022/12/03 00:39:49;;;;;;;24.03;16.67;;;3.10;99.90;;;;;;5117628;27;20187;-58
2022/12/03 00:42:15;;;;;;;23.87;15.30;;;3.10;99.90;;;;;;5136115;27;20169;-59
2022/12/03 00:44:41;;;;;;;23.90;16.47;;;3.10;99.90;;;;;;5135996;27;20184;-59
2022/12/03 00:47:06;;;;;;;24.07;16.50;;;3.00;99.90;;;;;;5136074;27;20215;-59
2022/12/03 00:49:32;;;;;;;23.87;16.47;;;3.20;99.90;;;;;;5136116;27;20172;-60
2022/12/03 00:51:57;;;;;;;22.93;15.87;;;3.10;99.90;;;;;;5135874;27;20203;-60
2022/12/03 00:54:23;;;;;;;23.67;17.55;;;3.10;99.90;;;;;;5117326;27;20195;-61
2022/12/03 00:56:49;;;;;;;25.17;17.23;;;3.10;99.90;;;;;;5117482;27;20211;-59
2022/12/03 00:59:14;;;;;;;24.50;17.23;;;3.20;99.90;;;;;;5135687;27;20186;-60
2022/12/03 01:01:40;;;;;;;22.77;15.80;;;3.00;99.90;;;;;;5117435;27;20638;-62
2022/12/03 01:04:06;;;;;;;26.10;17.30;;;3.10;99.90;;;;;;5135835;27;20172;-60
2022/12/03 01:06:31;;;;;;;25.33;17.07;;;3.10;99.90;;;;;;5100760;27;20184;-59
2022/12/03 01:08:57;;;;;;;23.40;16.77;;;3.30;99.90;;;;;;5135462;27;20502;-59
2022/12/03 01:11:38;;;;;;;24.43;17.83;;;3.10;99.90;;;;;;5135420;27;20641;-61
2022/12/03 01:14:06;;;;;;;24.80;18.17;;;3.10;99.90;;;;;;5135832;27;20222;-61
2022/12/03 01:16:32;;;;;;;24.97;16.57;;;3.20;99.90;;;;;;5135336;27;20608;-59
2022/12/03 01:18:57;;;;;;;23.77;16.83;;;3.10;99.90;;;;;;5135374;27;20251;-59
2022/12/03 01:21:23;;;;;;;24.30;17.27;;;3.00;99.90;;;;;;5135299;27;20211;-59
2022/12/03 01:23:49;;;;;;;24.80;17.17;;;3.00;99.90;;;;;;5117371;27;20651;-59
2022/12/03 01:26:14;;;;;;;26.43;17.90;;;2.90;99.90;;;;;;5135475;27;20173;-61
2022/12/03 01:28:40;;;;;;;27.00;18.70;;;3.00;99.90;;;;;;5116855;27;20179;-61
2022/12/03 01:33:51;;;;;;;24.47;16.97;;;3.30;99.90;;;;;;5119921;27;20267;-59
2022/12/03 01:36:17;;;;;;;23.73;16.67;;;3.20;99.90;;;;;;5099810;27;20298;-60
2022/12/03 01:38:42;;;;;;;22.13;15.97;;;3.10;99.90;;;;;;5099822;27;20176;-59
2022/12/03 01:41:08;;;;;;;23.23;15.40;;;3.00;99.90;;;;;;5116400;27;20191;-61
2022/12/03 01:43:34;;;;;;;25.20;17.00;;;3.00;99.90;;;;;;5135129;27;20171;-61
2022/12/03 01:46:00;;;;;;;25.13;15.97;;;3.00;99.90;;;;;;5116425;27;20176;-61
2022/12/03 01:48:29;;;;;;;25.33;15.97;;;3.10;99.90;;;;;;5134291;27;20191;-61
2022/12/03 01:50:55;;;;;;;23.83;16.50;;;3.00;99.90;;;;;;5135029;27;20593;-61
2022/12/03 01:53:21;;;;;;;24.53;15.57;;;3.00;99.90;;;;;;5099776;27;20245;-61
2022/12/03 01:55:46;;;;;;;23.03;16.17;;;3.00;99.90;;;;;;5134698;27;20309;-60
2022/12/03 01:58:14;;;;;;;25.37;16.27;;;3.00;99.90;;;;;;5134878;27;20180;-61
2022/12/03 02:00:40;;;;;;;24.07;16.07;;;2.90;99.90;;;;;;5134749;27;20572;-61
2022/12/03 02:03:16;;;;;;;21.97;15.50;;;2.90;99.90;;;;;;5116304;27;20180;-61
2022/12/03 02:05:42;;;;;;;21.90;15.77;;;3.10;99.90;;;;;;5134812;27;20182;-61
2022/12/03 02:08:34;;;;;;;24.37;16.50;;;3.30;99.90;;;;;;5134521;27;20180;-61
2022/12/03 02:11:07;;;;;;;22.87;15.77;;;3.30;99.90;;;;;;5134643;27;20259;-61
2022/12/03 02:13:34;;;;;;;22.93;15.13;;;3.40;99.90;;;;;;5134433;27;20164;-61
2022/12/03 02:15:59;;;;;;;22.13;15.37;;;3.20;99.90;;;;;;5134736;27;20203;-61
2022/12/03 02:18:25;;;;;;;23.83;16.17;;;3.20;99.90;;;;;;5134478;27;20180;-61
2022/12/03 02:20:50;;;;;;;22.92;16.00;;;3.20;99.90;;;;;;5115936;27;20260;-61
2022/12/03 02:23:39;;;;;;;25.13;17.13;;;3.20;99.90;;;;;;5115920;27;20538;-61
2022/12/03 02:26:08;;;;;;;23.63;16.67;;;3.20;99.90;;;;;;5134232;27;20599;-61
2022/12/03 02:28:33;;;;;;;22.33;16.50;;;3.20;99.90;;;;;;5134413;27;20220;-62
2022/12/03 02:30:59;;;;;;;23.17;16.60;;;3.10;99.90;;;;;;5134199;27;20177;-61
2022/12/03 02:33:25;;;;;;;24.73;16.67;;;3.20;99.90;;;;;;5115981;28;20206;-61
2022/12/03 02:35:50;;;;;;;25.50;17.17;;;3.10;99.90;;;;;;5098829;28;20654;-61
2022/12/03 02:38:24;;;;;;;24.07;17.07;;;3.20;99.90;;;;;;5134136;28;20249;-59
2022/12/03 02:40:53;;;;;;;25.50;16.83;;;3.40;99.90;;;;;;5134236;28;20549;-61
2022/12/03 02:43:20;;;;;;;24.10;16.40;;;3.20;99.90;;;;;;5134190;28;20220;-62
2022/12/03 02:45:50;;;;;;;25.27;16.77;;;3.20;99.90;;;;;;5115715;28;20518;-61
2022/12/03 02:48:19;;;;;;;25.13;16.57;;;3.30;99.90;;;;;;5134020;28;20615;-61
2022/12/03 02:50:51;;;;;;;23.60;16.73;;;3.30;99.90;;;;;;5133860;28;20172;-61
2022/12/03 02:53:20;;;;;;;23.53;16.60;;;3.50;99.90;;;;;;5133878;28;20258;-60
2022/12/03 02:55:47;;;;;;;25.63;16.87;;;3.50;99.90;;;;;;5133919;28;20252;-62
2022/12/03 02:58:13;;;;;;;24.73;16.87;;;3.30;99.90;;;;;;5134096;28;20220;-61
2022/12/03 03:00:39;;;;;;;25.33;17.27;;;3.30;99.90;;;;;;5117529;27;20545;-61
2022/12/03 03:03:10;;;;;;;25.30;17.10;;;3.20;99.90;;;;;;5138122;27;20173;-60
2022/12/03 03:05:38;;;;;;;25.47;16.53;;;3.10;99.90;;;;;;5120295;27;20224;-61
2022/12/03 03:08:06;;;;;;;24.83;17.37;;;3.10;99.90;;;;;;5138032;27;20189;-61
2022/12/03 03:10:34;;;;;;;25.10;16.97;;;3.10;99.90;;;;;;5137986;27;20317;-61
2022/12/03 03:13:02;;;;;;;25.10;16.52;;;3.20;99.90;;;;;;5119898;27;20173;-61
2022/12/03 03:15:28;;;;;;;24.13;16.27;;;3.20;99.90;;;;;;5137716;27;20187;-61
2022/12/03 03:17:54;;;;;;;27.95;17.75;;;3.00;99.90;;;;;;5137649;27;20241;-61
2022/12/03 03:20:20;;;;;;;25.10;16.47;;;3.00;99.90;;;;;;5137860;27;20181;-62
2022/12/03 03:22:46;;;;;;;27.97;18.43;;;3.10;99.90;;;;;;5137995;27;20629;-62
2022/12/03 03:25:15;;;;;;;27.73;18.33;;;3.10;99.90;;;;;;5137535;27;20174;-59
2022/12/03 03:27:41;;;;;;;26.77;17.30;;;3.20;99.90;;;;;;5137814;27;20709;-61
2022/12/03 03:30:09;;;;;;;28.30;18.33;;;3.10;99.90;;;;;;5137904;27;20199;-59
2022/12/03 03:32:35;;;;;;;25.93;17.17;;;3.10;99.90;;;;;;5137492;27;20192;-59
2022/12/03 03:35:01;;;;;;;25.27;17.33;;;3.20;99.90;;;;;;5137571;27;20626;-59
2022/12/03 03:37:27;;;;;;;24.55;17.50;;;3.30;99.90;;;;;;5119375;27;20705;-59
2022/12/03 03:39:53;;;;;;;25.90;17.92;;;3.20;99.90;;;;;;5137300;27;20181;-61
2022/12/03 03:42:20;;;;;;;25.65;15.98;;;3.00;99.90;;;;;;5119266;27;20174;-60
2022/12/03 03:44:46;;;;;;;26.10;18.10;;;3.10;99.90;;;;;;5137261;27;20183;-60
2022/12/03 03:47:13;;;;;;;26.80;17.53;;;3.20;99.90;;;;;;5137059;27;20184;-59
2022/12/03 03:49:39;;;;;;;26.37;17.67;;;3.30;99.90;;;;;;5101967;27;20183;-59
2022/12/03 03:52:05;;;;;;;27.20;17.50;;;3.20;99.90;;;;;;5137149;27;20191;-59
2022/12/03 03:54:31;;;;;;;24.23;15.80;;;3.40;99.90;;;;;;5119016;27;20177;-59
2022/12/03 03:56:57;;;;;;;24.75;15.95;;;3.40;99.90;;;;;;5101723;27;20678;-60
2022/12/03 03:59:22;;;;;;;25.80;16.97;;;3.20;99.90;;;;;;5118947;27;20209;-61
2022/12/03 04:01:48;;;;;;;25.03;17.23;;;3.30;99.90;;;;;;5136901;27;20181;-59
2022/12/03 04:04:19;;;;;;;26.00;17.03;;;3.50;99.90;;;;;;5137011;27;20177;-59
2022/12/03 04:06:45;;;;;;;26.37;17.13;;;3.50;99.90;;;;;;5137147;27;20173;-61
2022/12/03 04:09:11;;;;;;;22.15;16.40;;;3.40;99.90;;;;;;5136868;27;20176;-59
2022/12/03 04:14:21;;;;;;;23.10;16.63;;;3.40;99.90;;;;;;5136953;27;20641;-61
2022/12/03 04:16:46;;;;;;;26.80;18.43;;;3.50;99.90;;;;;;5118608;27;20228;-61
2022/12/03 04:19:12;;;;;;;27.70;17.67;;;3.30;99.90;;;;;;5136775;27;20187;-61
2022/12/03 04:24:22;;;;;;;27.23;18.37;;;3.20;99.90;;;;;;5136724;27;20698;-61
2022/12/03 04:29:31;;;;;;;26.17;17.50;;;3.20;99.90;;;;;;5121211;27;20249;-61
2022/12/03 04:37:25;;;;;;;26.40;18.73;;;3.10;99.90;;;;;;5120988;27;20527;-61
2022/12/03 04:39:51;;;;;;;27.90;19.00;;;3.10;99.90;;;;;;5136347;27;20184;-61
2022/12/03 04:42:17;;;;;;;27.67;18.60;;;3.20;99.90;;;;;;5136486;27;20176;-61
2022/12/03 04:44:46;;;;;;;25.50;17.30;;;3.30;99.90;;;;;;5136203;27;20679;-61
2022/12/03 04:47:19;;;;;;;26.53;18.37;;;3.30;99.90;;;;;;5135976;27;20180;-59
2022/12/03 04:49:50;;;;;;;27.90;18.43;;;3.20;99.90;;;;;;5135999;27;20213;-61
2022/12/03 04:52:17;;;;;;;28.20;18.23;;;3.30;99.90;;;;;;5136134;27;20183;-61
2022/12/03 04:54:44;;;;;;;26.63;18.57;;;3.20;99.90;;;;;;5136060;27;20202;-61
2022/12/03 04:57:10;;;;;;;26.83;18.57;;;3.20;99.90;;;;;;5135782;27;20225;-61
2022/12/03 04:59:36;;;;;;;28.77;19.50;;;3.10;99.90;;;;;;5117350;27;20179;-61
2022/12/03 05:02:03;;;;;;;29.97;20.27;;;3.10;99.90;;;;;;5135663;27;20167;-61
2022/12/03 05:04:29;;;;;;;32.43;20.73;;;3.20;99.90;;;;;;5135862;27;20187;-61
2022/12/03 05:06:55;;;;;;;33.33;21.33;;;3.20;99.90;;;;;;5135768;27;20534;-61
2022/12/03 05:09:21;;;;;;;29.77;20.10;;;3.30;99.90;;;;;;5135691;27;20176;-61
2022/12/03 05:11:46;;;;;;;35.00;21.57;;;3.20;99.90;;;;;;5117131;27;20203;-61
2022/12/03 05:14:12;;;;;;;32.13;20.90;;;3.10;99.90;;;;;;5117231;27;20629;-61
2022/12/03 05:16:38;;;;;;;32.03;20.70;;;3.00;99.90;;;;;;5135433;27;20657;-61
2022/12/03 05:19:05;;;;;;;31.77;20.90;;;3.20;99.90;;;;;;5117414;27;20177;-61
2022/12/03 05:21:31;;;;;;;33.20;22.13;;;3.30;99.90;;;;;;5135594;27;20172;-61
2022/12/03 05:23:57;;;;;;;34.23;21.57;;;3.30;99.90;;;;;;5134668;27;20279;-61
2022/12/03 05:26:22;;;;;;;34.07;22.57;;;3.30;99.90;;;;;;5135395;27;20689;-61
2022/12/03 05:28:48;;;;;;;30.70;20.73;;;3.20;99.90;;;;;;5135195;27;20211;-61
2022/12/03 05:31:15;;;;;;;33.03;21.30;;;3.30;99.90;;;;;;5135425;27;20571;-61
2022/12/03 05:33:41;;;;;;;33.13;21.93;;;3.40;99.90;;;;;;5135238;27;20177;-61
2022/12/03 05:36:07;;;;;;;35.20;22.37;;;3.40;99.90;;;;;;5135240;27;20261;-62
2022/12/03 05:38:33;;;;;;;34.37;22.07;;;3.30;99.90;;;;;;5135152;27;20185;-62
2022/12/03 05:40:58;;;;;;;36.63;22.07;;;3.50;99.90;;;;;;5116601;27;20195;-61
2022/12/03 05:43:24;;;;;;;34.43;21.03;;;3.50;99.90;;;;;;5135250;27;20279;-61
2022/12/03 05:45:50;;;;;;;34.70;22.40;;;3.50;99.90;;;;;;5134798;27;20210;-61
2022/12/03 05:48:16;;;;;;;35.00;22.63;;;3.40;99.90;;;;;;5116386;27;20624;-61
2022/12/03 05:50:44;;;;;;;36.40;22.63;;;3.20;99.90;;;;;;5134965;27;20624;-61
2022/12/03 05:53:11;;;;;;;35.67;22.33;;;3.30;99.90;;;;;;5134803;27;20168;-61
2022/12/03 05:55:37;;;;;;;36.77;23.07;;;3.40;99.90;;;;;;5134610;27;20211;-61
2022/12/03 05:58:03;;;;;;;35.20;23.03;;;3.50;99.90;;;;;;5134615;27;20180;-61
2022/12/03 06:00:31;;;;;;;35.63;22.87;;;3.40;99.90;;;;;;5134628;27;20172;-61
2022/12/03 06:02:57;;;;;;;38.60;22.40;;;3.30;99.90;;;;;;5116388;27;20617;-61
2022/12/03 06:05:24;;;;;;;36.07;22.50;;;3.20;99.90;;;;;;5134700;27;20184;-63
2022/12/03 06:07:51;;;;;;;35.27;22.70;;;3.20;99.90;;;;;;5116323;27;20241;-61
2022/12/03 06:10:24;;;;;;;40.27;23.77;;;3.10;99.90;;;;;;5134403;27;20625;-62
2022/12/03 06:12:50;;;;;;;36.77;22.40;;;3.20;99.90;;;;;;5134461;27;20171;-62
2022/12/03 06:15:16;;;;;;;37.77;23.03;;;3.40;99.90;;;;;;5115953;27;20176;-61
2022/12/03 06:17:42;;;;;;;35.50;22.33;;;3.30;99.90;;;;;;5134521;27;20201;-62
2022/12/03 06:20:12;;;;;;;37.53;23.13;;;3.20;99.90;;;;;;5115983;27;20221;-62
2022/12/03 06:22:38;;;;;;;37.37;22.27;;;3.20;99.90;;;;;;5134378;27;20262;-61
2022/12/03 06:25:04;;;;;;;37.63;23.17;;;3.10;99.90;;;;;;5116033;27;20602;-62
2022/12/03 06:27:29;;;;;;;35.80;23.20;;;3.00;99.90;;;;;;5134144;27;20222;-59
2022/12/03 06:29:58;;;;;;;39.70;23.73;;;3.00;99.90;;;;;;5134513;27;20266;-62
2022/12/03 06:32:24;;;;;;;40.17;23.83;;;3.10;99.90;;;;;;5134340;27;20530;-61
2022/12/03 06:34:50;;;;;;;36.03;22.30;;;3.20;99.90;;;;;;5115996;28;20176;-62
2022/12/03 06:37:15;;;;;;;39.70;25.13;;;3.20;99.90;;;;;;5133478;28;20207;-61
2022/12/03 06:39:41;;;;;;;40.37;24.47;;;3.20;99.90;;;;;;5115509;28;20700;-61
2022/12/03 06:42:06;;;;;;;36.70;24.13;;;3.40;99.90;;;;;;5133779;28;20305;-61
2022/12/03 06:44:32;;;;;;;38.27;24.03;;;3.30;99.90;;;;;;5115537;28;20180;-62
2022/12/03 06:46:58;;;;;;;39.47;24.70;;;3.40;99.90;;;;;;5134061;28;20200;-62
2022/12/03 06:49:23;;;;;;;37.97;24.43;;;3.30;99.90;;;;;;5133995;28;20263;-62
2022/12/03 06:51:49;;;;;;;34.73;22.93;;;3.50;99.90;;;;;;5115732;28;20684;-62
2022/12/03 06:54:15;;;;;;;36.80;24.07;;;3.40;99.90;;;;;;5134023;28;20186;-62
2022/12/03 06:56:40;;;;;;;35.77;21.97;;;3.30;99.90;;;;;;5133756;28;20193;-62
2022/12/03 06:59:06;;;;;;;36.90;23.60;;;3.40;99.90;;;;;;5115490;28;20260;-62
2022/12/03 07:01:32;;;;;;;35.53;22.73;;;3.30;99.90;;;;;;5115464;28;20175;-62
2022/12/03 07:03:57;;;;;;;38.23;23.60;;;3.40;99.90;;;;;;5132781;28;20177;-62
2022/12/03 07:06:23;;;;;;;36.43;22.90;;;3.20;99.90;;;;;;5133043;28;20198;-62
2022/12/03 07:08:48;;;;;;;39.87;24.83;;;3.30;99.90;;;;;;5132956;28;20194;-61
2022/12/03 07:11:38;;;;;;;45.77;32.80;;;3.20;99.90;;;;;;5133272;28;20184;-62
2022/12/03 07:14:05;;;;;;;39.90;25.60;;;3.30;99.90;;;;;;5133039;28;20180;-61
2022/12/03 07:16:32;;;;;;;38.60;24.47;;;3.30;99.90;;;;;;5133554;28;20208;-61
2022/12/03 07:18:57;;;;;;;40.03;25.63;;;3.00;99.90;;;;;;5098719;28;20184;-62
2022/12/03 07:21:23;;;;;;;40.83;24.53;;;3.10;99.90;;;;;;5133386;28;20651;-62
2022/12/03 07:23:48;;;;;;;37.67;24.40;;;3.20;99.90;;;;;;5133372;28;20188;-61
2022/12/03 07:26:14;;;;;;;36.50;22.27;;;3.10;99.90;;;;;;5133118;28;20183;-61
2022/12/03 07:28:40;;;;;;;37.57;23.20;;;3.00;99.90;;;;;;5115366;28;20187;-61
2022/12/03 07:31:05;;;;;;;40.80;24.97;;;3.00;99.90;;;;;;5115157;28;20180;-61
2022/12/03 07:33:31;;;;;;;36.60;23.40;;;3.20;99.90;;;;;;5132630;28;20565;-61
2022/12/03 07:35:57;;;;;;;38.27;23.63;;;3.40;99.90;;;;;;5114973;28;20203;-62
2022/12/03 07:38:22;;;;;;;37.17;23.50;;;3.30;99.90;;;;;;5133136;28;20178;-61
2022/12/03 07:40:48;;;;;;;37.38;22.48;;;3.20;99.90;;;;;;5115080;28;20217;-61
2022/12/03 07:43:13;;;;;;;36.13;22.97;;;3.20;99.90;;;;;;5133190;28;20184;-61
2022/12/03 07:45:39;;;;;;;39.97;24.57;;;3.20;99.90;;;;;;5133523;27;20232;-61
2022/12/03 07:48:05;;;;;;;36.33;23.87;;;3.20;99.90;;;;;;5118954;27;20593;-61
2022/12/03 07:50:30;;;;;;;38.80;24.03;;;3.30;99.90;;;;;;5136907;27;20259;-61
2022/12/03 07:52:56;;;;;;;36.70;23.87;;;3.20;99.90;;;;;;5096758;27;20188;-59
2022/12/03 07:55:23;;;;;;;38.53;23.17;;;3.20;99.90;;;;;;5136301;27;20184;-62
2022/12/03 07:57:49;;;;;;;37.03;23.17;;;3.50;99.90;;;;;;5135873;27;20284;-62
2022/12/03 08:00:16;;;;;;;38.00;23.30;;;3.70;99.90;;;;;;5111712;27;20180;-61
2022/12/03 08:02:41;;;;;;;38.50;24.58;;;3.50;99.90;;;;;;5096484;28;20587;-61
2022/12/03 08:05:07;;;;;;;45.77;30.37;;;3.40;99.90;;;;;;5115973;27;20184;-61
2022/12/03 08:07:34;;;;;;;43.93;27.43;;;3.30;99.90;;;;;;5118334;27;20179;-61
2022/12/03 08:09:59;;;;;;;46.80;29.50;;;3.30;99.90;;;;;;5135560;27;20200;-61
2022/12/03 08:12:39;;;;;;;40.20;25.60;;;3.40;99.90;;;;;;5136469;27;20211;-62
2022/12/03 08:15:18;;;;;;;37.33;24.20;;;3.30;99.90;;;;;;5136091;27;20184;-61
2022/12/03 08:17:50;;;;;;;41.23;24.57;;;3.40;99.90;;;;;;5136038;27;20544;-62
2022/12/03 08:20:18;;;;;;;39.77;24.57;;;3.50;99.90;;;;;;5117958;27;20167;-60
2022/12/03 08:22:46;;;;;;;41.47;25.50;;;3.70;99.90;;;;;;5136721;27;20188;-61
2022/12/03 08:25:22;;;;;;;40.97;24.10;;;3.60;99.90;;;;;;5136528;27;20648;-61
2022/12/03 08:27:49;;;;;;;38.47;24.40;;;3.60;99.90;;;;;;5136244;27;20205;-61
2022/12/03 08:30:16;;;;;;;38.33;24.47;;;3.50;99.90;;;;;;5136279;27;20172;-61
2022/12/03 08:32:42;;;;;;;37.33;24.87;;;3.60;99.90;;;;;;5136063;27;20172;-61
2022/12/03 08:35:21;;;;;;;37.58;24.05;;;3.70;99.90;;;;;;5136130;27;20179;-61
2022/12/03 08:37:49;;;;;;;38.63;23.17;;;3.40;99.90;;;;;;5136669;27;20183;-61
2022/12/03 08:40:26;;;;;;;34.90;22.10;;;3.40;99.90;;;;;;5136143;27;20541;-63
2022/12/03 08:42:52;;;;;;;36.20;22.63;;;3.40;99.90;;;;;;5136173;27;20174;-61
2022/12/03 08:45:44;;;;;;;39.33;23.80;;;3.60;99.90;;;;;;5117598;27;20194;-61
2022/12/03 08:48:31;;;;;;;38.60;24.58;;;3.70;99.90;;;;;;5131635;27;20183;-61
2022/12/03 08:51:17;;;;;;;40.03;23.52;;;3.80;99.90;;;;;;5135962;27;20169;-61
2022/12/03 08:53:47;;;;;;;40.23;23.97;;;4.10;99.90;;;;;;5118151;27;20184;-61
2022/12/03 08:56:22;;;;;;;36.08;22.33;;;4.30;99.90;;;;;;5135901;27;20207;-61
2022/12/03 08:58:57;;;;;;;35.87;22.97;;;4.10;99.90;;;;;;5134689;27;20193;-60
2022/12/03 09:01:36;;;;;;;37.13;25.00;;;4.30;99.90;;;;;;5135883;27;20171;-60
2022/12/03 09:04:28;;;;;;;39.40;25.70;;;4.10;99.90;;;;;;5135631;27;20240;-61
2022/12/03 09:06:55;;;;;;;33.85;22.95;;;3.90;99.90;;;;;;5117267;27;20535;-61
2022/12/03 09:09:21;;;;;;;34.67;22.00;;;4.10;99.90;;;;;;5135643;27;20175;-60
2022/12/03 09:11:47;;;;;;;34.97;22.20;;;4.30;99.90;;;;;;5135535;27;20697;-60
2022/12/03 09:14:13;;;;;;;36.38;22.35;;;4.60;99.90;;;;;;5117003;27;20187;-61
2022/12/03 09:16:39;;;;;;;39.05;23.75;;;4.70;99.90;;;;;;5135421;27;20204;-60
2022/12/03 09:19:05;;;;;;;44.30;24.23;;;4.90;99.90;;;;;;5135447;27;20186;-61
2022/12/03 09:21:31;;;;;;;38.65;23.63;;;5.00;99.90;;;;;;5135496;27;20339;-60
2022/12/03 09:23:57;;;;;;;36.17;24.63;;;4.50;99.90;;;;;;5135370;27;20179;-61
2022/12/03 09:26:23;;;;;;;34.43;23.70;;;4.50;99.90;;;;;;5135253;27;20248;-60
2022/12/03 09:28:49;;;;;;;35.63;23.60;;;4.50;99.90;;;;;;5135060;27;20200;-61
2022/12/03 09:31:15;;;;;;;39.28;22.80;;;4.40;99.90;;;;;;5135342;27;20176;-61
2022/12/03 09:33:41;;;;;;;35.83;22.73;;;4.30;99.90;;;;;;5135199;27;20210;-61
2022/12/03 09:36:07;;;;;;;34.90;23.38;;;4.50;99.90;;;;;;5116357;27;20549;-60
2022/12/03 09:38:33;;;;;;;36.05;23.83;;;4.40;99.90;;;;;;5134924;27;20187;-60
2022/12/03 09:40:59;;;;;;;40.47;24.60;;;4.10;99.90;;;;;;5135176;27;20194;-61
2022/12/03 09:43:31;;;;;;;32.93;21.97;;;4.10;99.90;;;;;;5134807;27;20236;-61
2022/12/03 09:45:57;;;;;;;38.92;23.83;;;4.20;99.90;;;;;;5134791;27;20532;-61
2022/12/03 09:48:22;;;;;;;36.75;23.50;;;4.10;99.90;;;;;;5116574;27;20180;-60
2022/12/03 09:50:48;;;;;;;42.00;25.42;;;4.20;99.90;;;;;;5116579;27;20176;-61
2022/12/03 09:53:18;;;;;;;39.58;23.70;;;4.00;99.90;;;;;;5135045;27;20262;-61
2022/12/03 09:55:45;;;;;;;39.28;25.15;;;4.40;99.90;;;;;;5134584;27;20252;-60
2022/12/03 09:58:13;;;;;;;35.97;23.45;;;4.60;99.90;;;;;;5134602;27;20710;-60
2022/12/03 10:00:41;;;;;;;37.85;24.02;;;4.40;99.90;;;;;;5134786;27;20206;-61
2022/12/03 10:03:14;;;;;;;36.80;23.02;;;4.20;99.90;;;;;;5134663;27;20187;-61
2022/12/03 10:05:40;;;;;;;36.83;23.63;;;4.10;99.90;;;;;;5134686;27;20254;-61
2022/12/03 10:08:09;;;;;;;37.58;24.45;;;4.00;99.90;;;;;;5116171;27;20321;-61
2022/12/03 10:10:36;;;;;;;36.95;23.10;;;4.10;99.90;;;;;;5134306;27;20180;-61
2022/12/03 10:13:03;;;;;;;37.40;24.38;;;4.20;99.90;;;;;;5099153;27;20191;-61
2022/12/03 10:15:29;;;;;;;36.30;23.88;;;4.40;99.90;;;;;;5134567;27;20168;-61
2022/12/03 10:17:56;;;;;;;38.05;23.70;;;4.30;99.90;;;;;;5134537;27;20517;-61
2022/12/03 10:20:24;;;;;;;36.17;23.67;;;4.60;99.90;;;;;;5133745;27;20702;-62
2022/12/03 10:22:50;;;;;;;36.80;24.48;;;4.80;99.90;;;;;;5134366;27;20172;-61
2022/12/03 10:25:21;;;;;;;35.78;24.65;;;4.90;99.90;;;;;;5134049;27;20271;-62
2022/12/03 10:27:59;;;;;;;35.55;24.27;;;5.20;99.90;;;;;;5116148;27;20204;-61
2022/12/03 10:30:27;;;;;;;35.42;24.73;;;5.10;99.90;;;;;;5116089;27;20207;-61
2022/12/03 10:32:54;;;;;;;36.28;24.25;;;5.00;99.90;;;;;;5116206;28;20171;-61
2022/12/03 10:35:35;;;;;;;34.90;23.85;;;5.30;99.90;;;;;;5134140;27;20196;-61
2022/12/03 10:38:16;;;;;;;35.95;23.85;;;5.30;99.90;;;;;;5134476;27;20175;-61
2022/12/03 10:40:43;;;;;;;37.97;26.60;;;5.30;99.90;;;;;;5134292;28;20195;-62
2022/12/03 10:43:15;;;;;;;34.80;24.55;;;5.20;99.90;;;;;;5098971;28;20192;-61
2022/12/03 10:45:41;;;;;;;34.22;23.50;;;5.50;99.90;;;;;;5134078;28;20262;-61
2022/12/03 10:48:25;;;;;;;35.30;24.63;;;5.60;99.90;;;;;;5133926;28;20173;-61
2022/12/03 10:50:53;;;;;;;37.80;25.20;;;5.30;99.90;;;;;;5134599;28;20182;-62
2022/12/03 10:53:22;;;;;;;38.58;26.10;;;5.10;99.90;;;;;;5134058;28;20522;-60
2022/12/03 10:55:50;;;;;;;38.90;25.52;;;4.70;99.90;;;;;;5133897;28;20212;-62
2022/12/03 10:58:24;;;;;;;36.35;26.17;;;4.90;99.90;;;;;;5134072;28;20198;-61
2022/12/03 11:00:52;;;;;;;35.97;23.92;;;4.60;99.90;;;;;;5134072;28;20229;-62
2022/12/03 11:03:24;;;;;;;33.88;23.73;;;5.00;99.90;;;;;;5133916;28;20168;-61
2022/12/03 11:05:50;;;;;;;37.60;24.45;;;4.90;99.90;;;;;;5133977;28;20176;-61
2022/12/03 11:08:29;;;;;;;36.30;24.77;;;4.80;99.90;;;;;;5133981;28;20293;-61
2022/12/03 11:11:03;;;;;;;35.78;24.42;;;5.10;99.90;;;;;;5133762;28;20178;-62
2022/12/03 11:13:32;;;;;;;37.00;25.75;;;5.30;99.90;;;;;;5134016;28;20184;-62
2022/12/03 11:16:02;;;;;;;34.83;23.40;;;4.90;99.90;;;;;;5133920;28;20627;-62
2022/12/03 11:18:37;;;;;;;38.10;25.15;;;4.80;99.90;;;;;;5133939;28;20173;-62
2022/12/03 11:21:09;;;;;;;36.17;24.15;;;4.90;99.90;;;;;;5116197;27;20186;-62
2022/12/03 11:23:43;;;;;;;38.03;25.00;;;5.00;99.90;;;;;;5137683;27;20254;-62
2022/12/03 11:26:18;;;;;;;37.25;24.80;;;5.00;99.90;;;;;;5137861;27;20176;-62
2022/12/03 11:28:50;;;;;;;35.38;23.90;;;4.40;99.90;;;;;;5137556;27;20270;-61
2022/12/03 11:31:36;;;;;;;38.13;24.98;;;4.30;99.90;;;;;;5137429;27;20183;-61
2022/12/03 11:34:24;;;;;;;37.60;24.08;;;4.50;99.90;;;;;;5118958;27;20169;-61
2022/12/03 11:37:08;;;;;;;38.40;24.35;;;4.40;99.90;;;;;;5137547;27;20200;-61
2022/12/03 11:39:48;;;;;;;35.60;24.17;;;4.50;99.90;;;;;;5137340;27;20180;-61
2022/12/03 11:42:25;;;;;;;37.10;24.48;;;4.80;99.90;;;;;;5136552;27;20196;-61
2022/12/03 11:45:03;;;;;;;34.67;23.85;;;5.10;99.90;;;;;;5137239;27;20533;-61
2022/12/03 11:47:58;;;;;;;37.90;25.17;;;5.40;99.90;;;;;;5102838;27;20203;-61
2022/12/03 11:50:34;;;;;;;35.95;23.33;;;5.40;99.90;;;;;;5137163;27;20254;-61
2022/12/03 11:53:10;;;;;;;36.58;23.48;;;5.30;99.90;;;;;;5137343;27;20232;-61
2022/12/03 11:55:39;;;;;;;36.25;23.10;;;4.90;99.90;;;;;;5137170;27;20210;-61
2022/12/03 11:58:16;;;;;;;35.88;23.08;;;4.80;99.90;;;;;;5137133;27;20165;-61
2022/12/03 12:00:52;;;;;;;33.67;23.17;;;5.00;99.90;;;;;;5137043;27;20532;-61
2022/12/03 12:03:33;;;;;;;35.17;24.00;;;5.40;99.90;;;;;;5137139;27;20188;-61
2022/12/03 12:06:07;;;;;;;36.50;23.20;;;5.20;99.90;;;;;;5137096;27;20172;-61
2022/12/03 12:08:53;;;;;;;33.10;23.13;;;5.20;99.90;;;;;;5137104;27;20175;-61
2022/12/03 12:11:25;;;;;;;35.90;26.02;;;5.50;99.90;;;;;;5135689;27;20184;-61
2022/12/03 12:13:57;;;;;;;32.75;22.38;;;5.40;99.90;;;;;;5136992;27;20203;-61
2022/12/03 12:16:41;;;;;;;34.83;22.63;;;5.00;99.90;;;;;;5136981;27;20211;-63
2022/12/03 12:19:26;;;;;;;31.55;21.27;;;4.80;99.90;;;;;;5136655;27;20270;-61
2022/12/03 12:21:53;;;;;;;31.85;22.02;;;5.10;99.90;;;;;;5136442;27;20178;-62
2022/12/03 12:24:55;;;;;;;31.20;21.20;;;5.10;99.90;;;;;;5136725;27;20165;-61
2022/12/03 12:27:34;;;;;;;31.30;21.75;;;5.10;99.90;;;;;;5033260;28;20241;-61
2022/12/03 12:30:04;;;;;;;30.48;20.48;;;4.80;99.90;;;;;;5107187;27;20270;-61
2022/12/03 12:32:32;;;;;;;31.00;20.80;;;4.80;99.90;;;;;;5136367;27;20174;-62
2022/12/03 12:35:18;;;;;;;29.00;20.33;;;4.90;99.90;;;;;;5136435;27;20172;-61
2022/12/03 12:37:52;;;;;;;30.83;20.42;;;4.60;99.90;;;;;;5136617;27;20260;-61
2022/12/03 12:40:20;;;;;;;30.90;20.45;;;4.60;99.90;;;;;;5136087;27;20195;-61
2022/12/03 12:42:51;;;;;;;30.35;20.33;;;4.40;99.90;;;;;;5136501;27;20597;-61
2022/12/03 12:45:23;;;;;;;32.45;20.95;;;4.50;99.90;;;;;;5136342;27;20194;-61
2022/12/03 12:48:16;;;;;;;30.73;20.90;;;4.50;99.90;;;;;;5136476;27;20632;-61
2022/12/03 12:50:47;;;;;;;33.22;20.80;;;4.40;99.90;;;;;;5136030;27;20262;-61
2022/12/03 12:53:18;;;;;;;28.65;19.40;;;4.50;99.90;;;;;;5135983;27;20266;-61
2022/12/03 12:55:44;;;;;;;28.60;20.35;;;4.60;99.90;;;;;;5135959;27;20209;-61
2022/12/03 12:58:16;;;;;;;30.98;20.90;;;4.50;99.90;;;;;;5135886;27;20205;-61
2022/12/03 13:00:55;;;;;;;31.63;20.77;;;4.50;99.90;;;;;;5135998;27;20195;-61